Hlavní strana
METAR-TAF:

METAR-TAF

Letiště :

Jönköping, Švédsko

zeměpisná šířka: 57-46N, zeměpisná délka: 014-05E, výška: 226 m

Aktuální stav počasí

Zpráva byla vytvořena před 28 minutami, v 18:20 UTC
Jihozápadní vítr 12 kt
Teplota 10°C
Vlhkost vzduchu 87%
Tlak 1015 hPa
Viditelnost 10 km a více
Polojasno ve výšce 1500 ft
Oblačno až skoro zataženo ve výšce 3100 ft

METAR: ESGJ 221820Z 23012KT 9999 SCT015 BKN031 10/08 Q1015

Čas: 20:48 (18:48 UTC)

Předpověď počasí

Zpráva byla vytvořena před 1 hodinou a 18 minutami, v 17:30 UTC
Předpověď platná od 22 v 18 UTC do 23 v 01 UTC
Jihozápadní vítr 12 kt
Viditelnost 10 km a více
Oblačno až skoro zataženo ve výšce 3000 ft
Pravděpodobnost 40%
od 22 v 18 UTC do 22 v 22 UTC

TAF: ESGJ 221730Z 2218/2301 23012KT 9999 BKN030 PROB40 2218/2222

Stav a předpovědi počasí z více než 4 000 letišť (zprávy METAR a TAF).

Červené a žluté tečky na mapě představují dostupné meteorologické stanice.

Když kurzor umístíte na tečku, zobrazí se název stanice.

Pak kliknutím zobrazíte stav a předpověď počasí.

Chcete-li změnit mapu, kliknutím na zelené tlačítko se znaménkem +mapu přiblížíte, kliknutím na zelené tlačítko se znaménkem – mapu oddálíte a kliknutím na zelené šipky přejdete na sousední mapy.


METAR-TAF: